Time;durP1;ratioP1;P1;durP2;ratioP2;P2;SDS_P1;SDS_P2;PMS_P1;PMS_P2;Temp;Humidity;BMP_temperature;BMP_pressure;BME280_temperature;BME280_humidity;BME280_pressure;Samples;Min_cycle;Max_cycle;Signal;HPM_P1;HPM_P2
2022/11/30 00:01:48;;;;;;;10.50;5.78;;;;;;;;;;4936654;29;20040;-64
2022/11/30 00:04:14;;;;;;;11.77;5.85;;;;;;;;;;4936882;29;20034;-64
2022/11/30 00:06:43;;;;;;;11.07;5.80;;;;;;;;;;4936783;29;20028;-64
2022/11/30 00:09:10;;;;;;;10.98;5.72;;;;;;;;;;4936342;29;20432;-64
2022/11/30 00:11:36;;;;;;;9.27;4.85;;;;;;;;;;4936369;29;20035;-65
2022/11/30 00:14:02;;;;;;;8.07;4.78;;;;;;;;;;4936549;29;20059;-66
2022/11/30 00:16:28;;;;;;;9.75;4.57;;;;;;;;;;4936555;29;20082;-66
2022/11/30 00:18:54;;;;;;;10.88;4.90;;;;;;;;;;4936026;29;20059;-64
2022/11/30 00:21:20;;;;;;;10.35;4.80;;;;;;;;;;4936341;29;20040;-64
2022/11/30 00:23:47;;;;;;;8.95;4.13;;;;;;;;;;4936256;29;20036;-64
2022/11/30 00:26:14;;;;;;;8.48;4.20;;;;;;;;;;4936312;29;20505;-63
2022/11/30 00:28:41;;;;;;;8.80;4.82;;;;;;;;;;4935999;29;20055;-65
2022/11/30 00:31:08;;;;;;;9.25;4.55;;;;;;;;;;4936171;29;20066;-65
2022/11/30 00:33:35;;;;;;;8.93;4.22;;;;;;;;;;4936295;29;20047;-64
2022/11/30 00:36:03;;;;;;;7.75;3.65;;;;;;;;;;4936173;29;20027;-65
2022/11/30 00:38:30;;;;;;;8.68;4.60;;;;;;;;;;4936128;29;20035;-64
2022/11/30 00:40:56;;;;;;;9.73;4.45;;;;;;;;;;4935886;29;20020;-63
2022/11/30 00:43:22;;;;;;;6.22;3.72;;;;;;;;;;4918632;29;20470;-64
2022/11/30 00:45:48;;;;;;;6.88;3.97;;;;;;;;;;4936437;29;20424;-63
2022/11/30 00:48:14;;;;;;;7.03;4.05;;;;;;;;;;4936168;29;20050;-65
2022/11/30 00:50:41;;;;;;;8.05;3.60;;;;;;;;;;4936313;29;20395;-66
2022/11/30 00:53:07;;;;;;;8.15;4.07;;;;;;;;;;4936115;29;20040;-63
2022/11/30 00:55:33;;;;;;;5.80;3.33;;;;;;;;;;4936205;29;20122;-64
2022/11/30 00:58:00;;;;;;;6.80;3.53;;;;;;;;;;4935368;29;20035;-65
2022/11/30 01:00:26;;;;;;;8.18;4.40;;;;;;;;;;4936020;29;20024;-63
2022/11/30 01:03:00;;;;;;;7.85;3.80;;;;;;;;;;4935720;29;20023;-65
2022/11/30 01:05:26;;;;;;;5.70;3.22;;;;;;;;;;4935713;29;20063;-63
2022/11/30 01:07:52;;;;;;;7.20;3.78;;;;;;;;;;4935464;29;20027;-64
2022/11/30 01:10:18;;;;;;;7.18;3.80;;;;;;;;;;4935092;29;20063;-63
2022/11/30 01:12:45;;;;;;;6.78;3.58;;;;;;;;;;4934911;29;20047;-63
2022/11/30 01:15:11;;;;;;;5.00;3.03;;;;;;;;;;4935559;29;20115;-64
2022/11/30 01:17:37;;;;;;;6.53;3.40;;;;;;;;;;4935647;29;20472;-64
2022/11/30 01:20:04;;;;;;;6.32;3.28;;;;;;;;;;4935081;29;20488;-64
2022/11/30 01:22:30;;;;;;;4.90;2.80;;;;;;;;;;4935433;29;20028;-64
2022/11/30 01:24:56;;;;;;;4.97;2.88;;;;;;;;;;4935259;29;20102;-63
2022/11/30 01:27:22;;;;;;;5.82;3.33;;;;;;;;;;4935322;29;20110;-64
2022/11/30 01:29:48;;;;;;;5.38;2.70;;;;;;;;;;4935325;29;20024;-64
2022/11/30 01:32:14;;;;;;;4.00;2.45;;;;;;;;;;4935062;29;20050;-65
2022/11/30 01:34:40;;;;;;;3.65;2.40;;;;;;;;;;4934775;29;20032;-64
2022/11/30 01:37:06;;;;;;;6.43;2.85;;;;;;;;;;4935094;29;20031;-63
2022/11/30 01:39:32;;;;;;;4.47;2.55;;;;;;;;;;4934766;29;20031;-65
2022/11/30 01:41:58;;;;;;;4.45;2.38;;;;;;;;;;4934727;29;20031;-65
2022/11/30 01:44:27;;;;;;;4.35;2.28;;;;;;;;;;4934961;29;20031;-64
2022/11/30 01:47:08;;;;;;;4.45;2.42;;;;;;;;;;4934792;29;20027;-64
2022/11/30 01:49:34;;;;;;;4.18;2.22;;;;;;;;;;4934587;29;20039;-65
2022/11/30 01:52:03;;;;;;;3.92;2.00;;;;;;;;;;4934554;29;20036;-66
2022/11/30 01:54:32;;;;;;;4.57;2.20;;;;;;;;;;4934780;29;20024;-65
2022/11/30 01:57:08;;;;;;;3.50;2.10;;;;;;;;;;4934726;29;20551;-64
2022/11/30 01:59:34;;;;;;;3.75;1.98;;;;;;;;;;4934800;29;20119;-64
2022/11/30 02:02:00;;;;;;;4.00;2.40;;;;;;;;;;4934882;29;20027;-63
2022/11/30 02:04:31;;;;;;;2.90;1.70;;;;;;;;;;4934536;29;20066;-64
2022/11/30 02:06:58;;;;;;;3.58;2.22;;;;;;;;;;4934529;29;20087;-65
2022/11/30 02:09:25;;;;;;;3.67;2.05;;;;;;;;;;4933515;29;20479;-64
2022/11/30 02:11:51;;;;;;;3.30;1.58;;;;;;;;;;4934417;29;20027;-65
2022/11/30 02:14:32;;;;;;;2.83;1.60;;;;;;;;;;4934711;29;20110;-64
2022/11/30 02:17:08;;;;;;;3.30;1.42;;;;;;;;;;4934738;29;20411;-65
2022/11/30 02:19:40;;;;;;;3.45;1.60;;;;;;;;;;4934330;29;20091;-63
2022/11/30 02:22:21;;;;;;;2.25;1.30;;;;;;;;;;4934343;29;20073;-65
2022/11/30 02:24:47;;;;;;;3.42;1.85;;;;;;;;;;4934500;29;20056;-63
2022/11/30 02:27:22;;;;;;;2.70;1.35;;;;;;;;;;4934619;29;20491;-63
2022/11/30 02:30:06;;;;;;;3.38;1.70;;;;;;;;;;4933993;29;20031;-65
2022/11/30 02:32:39;;;;;;;2.55;1.50;;;;;;;;;;4934276;29;20102;-65
2022/11/30 02:35:06;;;;;;;2.72;1.33;;;;;;;;;;4934476;29;20036;-64
2022/11/30 02:37:33;;;;;;;2.83;1.55;;;;;;;;;;4934247;29;20055;-63
2022/11/30 02:39:59;;;;;;;2.95;1.50;;;;;;;;;;4933642;29;20026;-65
2022/11/30 02:42:25;;;;;;;3.72;1.67;;;;;;;;;;4933716;29;20036;-66
2022/11/30 02:44:53;;;;;;;2.38;1.52;;;;;;;;;;4934063;29;20473;-63
2022/11/30 02:47:19;;;;;;;2.50;1.60;;;;;;;;;;4933868;29;20036;-66
2022/11/30 02:49:48;;;;;;;3.67;1.60;;;;;;;;;;4933749;29;20038;-65
2022/11/30 02:52:14;;;;;;;2.75;1.45;;;;;;;;;;4933491;29;20126;-65
2022/11/30 02:54:41;;;;;;;2.85;1.50;;;;;;;;;;4933938;29;20091;-65
2022/11/30 02:57:07;;;;;;;5.00;1.27;;;;;;;;;;4933380;29;20480;-63
2022/11/30 02:59:33;;;;;;;3.40;1.50;;;;;;;;;;4933634;29;20484;-64
2022/11/30 03:01:59;;;;;;;2.45;1.30;;;;;;;;;;4935135;29;20031;-65
2022/11/30 03:04:25;;;;;;;2.78;1.55;;;;;;;;;;4935311;29;20031;-65
2022/11/30 03:06:51;;;;;;;3.45;1.38;;;;;;;;;;4934059;29;20036;-66
2022/11/30 03:09:17;;;;;;;2.58;1.40;;;;;;;;;;4933881;29;20035;-65
2022/11/30 03:11:43;;;;;;;2.38;1.48;;;;;;;;;;4933592;29;20111;-65
2022/11/30 03:14:09;;;;;;;2.78;1.45;;;;;;;;;;4933499;29;20027;-64
2022/11/30 03:16:36;;;;;;;2.83;1.52;;;;;;;;;;4933955;29;20032;-66
2022/11/30 03:19:02;;;;;;;3.20;1.50;;;;;;;;;;4933098;29;20055;-66
2022/11/30 03:21:28;;;;;;;3.08;1.40;;;;;;;;;;4936604;29;20078;-65
2022/11/30 03:23:54;;;;;;;3.20;1.67;;;;;;;;;;4937822;29;20087;-66
2022/11/30 03:26:20;;;;;;;2.10;1.40;;;;;;;;;;4937485;29;20036;-64
2022/11/30 03:28:46;;;;;;;2.83;1.40;;;;;;;;;;4937405;29;20043;-62
2022/11/30 03:31:13;;;;;;;2.60;1.35;;;;;;;;;;4937493;29;20032;-64
2022/11/30 03:33:42;;;;;;;2.00;1.10;;;;;;;;;;4937402;29;20127;-65
2022/11/30 03:36:10;;;;;;;2.90;1.60;;;;;;;;;;4937662;29;20063;-66
2022/11/30 03:38:36;;;;;;;3.08;1.60;;;;;;;;;;4937571;29;20110;-64
2022/11/30 03:41:05;;;;;;;2.53;1.27;;;;;;;;;;4937162;29;20038;-62
2022/11/30 03:43:32;;;;;;;2.83;1.50;;;;;;;;;;4936912;29;20122;-65
2022/11/30 03:45:58;;;;;;;2.75;1.42;;;;;;;;;;4937423;29;20118;-64
2022/11/30 03:48:24;;;;;;;2.70;1.30;;;;;;;;;;4936812;29;20039;-64
2022/11/30 03:50:50;;;;;;;2.25;1.30;;;;;;;;;;4936859;29;20403;-64
2022/11/30 03:53:20;;;;;;;2.70;1.17;;;;;;;;;;4936706;29;20043;-63
2022/11/30 03:55:46;;;;;;;3.28;1.40;;;;;;;;;;4936873;29;20031;-64
2022/11/30 03:58:12;;;;;;;2.55;1.30;;;;;;;;;;4936889;29;20511;-64
2022/11/30 04:00:38;;;;;;;2.47;1.30;;;;;;;;;;4937128;29;20432;-64
2022/11/30 04:03:05;;;;;;;2.40;1.10;;;;;;;;;;4936743;29;20055;-64
2022/11/30 04:05:31;;;;;;;2.30;1.30;;;;;;;;;;4937160;29;20024;-64
2022/11/30 04:07:57;;;;;;;2.35;1.17;;;;;;;;;;4936828;29;20086;-65
2022/11/30 04:10:23;;;;;;;3.13;1.42;;;;;;;;;;4936457;29;20452;-64
2022/11/30 04:12:49;;;;;;;2.25;1.10;;;;;;;;;;4936746;29;20047;-64
2022/11/30 04:15:15;;;;;;;1.38;1.00;;;;;;;;;;4936826;29;20023;-63
2022/11/30 04:17:41;;;;;;;2.28;1.00;;;;;;;;;;4936243;29;20034;-64
2022/11/30 04:20:07;;;;;;;2.55;1.15;;;;;;;;;;4936400;29;20080;-63
2022/11/30 04:22:33;;;;;;;1.80;1.20;;;;;;;;;;4936284;29;20031;-65
2022/11/30 04:25:00;;;;;;;1.67;1.10;;;;;;;;;;4936635;29;20032;-63
2022/11/30 04:27:28;;;;;;;2.50;1.33;;;;;;;;;;4936344;29;20067;-65
2022/11/30 04:29:54;;;;;;;2.10;1.08;;;;;;;;;;4928620;29;20123;-64
2022/11/30 04:32:20;;;;;;;2.88;1.25;;;;;;;;;;4935329;29;20082;-63
2022/11/30 04:34:46;;;;;;;2.72;1.50;;;;;;;;;;4936373;29;20034;-65
2022/11/30 04:37:12;;;;;;;2.45;1.38;;;;;;;;;;4936189;29;20082;-64
2022/11/30 04:39:38;;;;;;;1.80;0.90;;;;;;;;;;4935934;29;20507;-64
2022/11/30 04:42:04;;;;;;;1.27;0.70;;;;;;;;;;4935812;29;20039;-65
2022/11/30 04:44:30;;;;;;;2.75;0.90;;;;;;;;;;4936320;29;20047;-64
2022/11/30 04:46:56;;;;;;;2.38;1.00;;;;;;;;;;4936092;29;20031;-65
2022/11/30 04:49:22;;;;;;;4.18;1.10;;;;;;;;;;4936093;29;20182;-65
2022/11/30 04:51:48;;;;;;;1.00;0.70;;;;;;;;;;4936015;29;20031;-63
2022/11/30 04:54:14;;;;;;;3.35;1.20;;;;;;;;;;4935914;29;20476;-64
2022/11/30 04:56:40;;;;;;;2.42;1.20;;;;;;;;;;4935876;29;20034;-64
2022/11/30 04:59:06;;;;;;;1.38;0.90;;;;;;;;;;4935775;29;20110;-64
2022/11/30 05:01:32;;;;;;;1.65;0.80;;;;;;;;;;4935721;29;20087;-64
2022/11/30 05:03:58;;;;;;;2.38;1.20;;;;;;;;;;4935685;29;20027;-63
2022/11/30 05:06:25;;;;;;;1.92;0.90;;;;;;;;;;4935477;29;20114;-63
2022/11/30 05:08:51;;;;;;;2.45;1.33;;;;;;;;;;4935828;29;20215;-64
2022/11/30 05:11:17;;;;;;;2.08;1.00;;;;;;;;;;4935548;29;20399;-63
2022/11/30 05:13:43;;;;;;;2.22;1.20;;;;;;;;;;4935194;29;20126;-64
2022/11/30 05:16:09;;;;;;;2.28;1.13;;;;;;;;;;4935457;29;20476;-63
2022/11/30 05:18:35;;;;;;;1.95;1.08;;;;;;;;;;4935108;29;20052;-64
2022/11/30 05:21:02;;;;;;;2.78;1.20;;;;;;;;;;4935372;29;20452;-65
2022/11/30 05:23:28;;;;;;;3.63;1.20;;;;;;;;;;4935009;29;20030;-64
2022/11/30 05:25:54;;;;;;;2.35;1.13;;;;;;;;;;4935252;29;20070;-64
2022/11/30 05:28:20;;;;;;;3.00;1.30;;;;;;;;;;4935046;29;20397;-64
2022/11/30 05:30:46;;;;;;;2.45;1.00;;;;;;;;;;4934989;29;20825;-63
2022/11/30 05:33:12;;;;;;;3.25;1.45;;;;;;;;;;4935071;29;20122;-66
2022/11/30 05:35:38;;;;;;;4.32;1.52;;;;;;;;;;4935194;29;20070;-65
2022/11/30 05:38:05;;;;;;;4.22;1.63;;;;;;;;;;4948637;29;20046;-63
2022/11/30 05:40:32;;;;;;;3.47;1.63;;;;;;;;;;4954472;29;20756;-64
2022/11/30 05:42:59;;;;;;;4.03;1.80;;;;;;;;;;4953804;28;20035;-65
2022/11/30 05:45:25;;;;;;;5.40;1.83;;;;;;;;;;4954478;29;20110;-65
2022/11/30 05:47:51;;;;;;;5.10;2.25;;;;;;;;;;4954249;28;20455;-63
2022/11/30 05:50:18;;;;;;;5.32;2.60;;;;;;;;;;4953894;29;20114;-63
2022/11/30 05:52:44;;;;;;;3.70;1.80;;;;;;;;;;4953792;29;20101;-65
2022/11/30 05:55:10;;;;;;;2.58;1.38;;;;;;;;;;4953959;29;20023;-64
2022/11/30 05:57:37;;;;;;;4.68;1.27;;;;;;;;;;4953560;29;20479;-64
2022/11/30 06:00:03;;;;;;;6.43;1.95;;;;;;;;;;4954140;29;20503;-63
2022/11/30 06:02:30;;;;;;;3.78;1.73;;;;;;;;;;4953979;29;20031;-64
2022/11/30 06:04:56;;;;;;;6.57;1.70;;;;;;;;;;4953889;29;20050;-64
2022/11/30 06:07:22;;;;;;;3.17;1.60;;;;;;;;;;4953981;29;20106;-65
2022/11/30 06:09:48;;;;;;;4.70;1.45;;;;;;;;;;4953794;29;20042;-63
2022/11/30 06:12:14;;;;;;;3.42;1.83;;;;;;;;;;4953432;29;20039;-65
2022/11/30 06:14:40;;;;;;;4.20;1.70;;;;;;;;;;4953553;29;20050;-65
2022/11/30 06:17:06;;;;;;;5.72;2.15;;;;;;;;;;4953252;29;20027;-64
2022/11/30 06:19:32;;;;;;;5.25;1.92;;;;;;;;;;4952553;29;20510;-63
2022/11/30 06:21:58;;;;;;;4.43;1.20;;;;;;;;;;4949578;29;20040;-65
2022/11/30 06:24:24;;;;;;;3.35;1.30;;;;;;;;;;4942421;29;20023;-64
2022/11/30 06:26:50;;;;;;;3.97;1.52;;;;;;;;;;4943580;29;20103;-64
2022/11/30 06:29:16;;;;;;;4.72;1.67;;;;;;;;;;4943237;29;20083;-65
2022/11/30 06:31:42;;;;;;;4.88;1.63;;;;;;;;;;4942451;29;20027;-64
2022/11/30 06:34:08;;;;;;;4.97;1.73;;;;;;;;;;4941583;29;20042;-63
2022/11/30 06:36:34;;;;;;;4.55;1.58;;;;;;;;;;4943452;29;20104;-63
2022/11/30 06:39:00;;;;;;;4.70;1.50;;;;;;;;;;4942450;29;20110;-64
2022/11/30 06:41:26;;;;;;;7.25;1.98;;;;;;;;;;4941593;29;20040;-63
2022/11/30 06:43:52;;;;;;;7.57;1.85;;;;;;;;;;4933817;29;20082;-64
2022/11/30 06:46:20;;;;;;;6.15;1.80;;;;;;;;;;4933940;29;20104;-64
2022/11/30 06:48:48;;;;;;;7.05;2.45;;;;;;;;;;4936907;29;20027;-66
2022/11/30 06:51:14;;;;;;;10.05;2.40;;;;;;;;;;4941850;29;20106;-62
2022/11/30 06:53:41;;;;;;;6.72;2.60;;;;;;;;;;4943056;29;20065;-63
2022/11/30 06:56:08;;;;;;;4.72;2.15;;;;;;;;;;4941102;29;20024;-65
2022/11/30 06:58:35;;;;;;;4.57;1.83;;;;;;;;;;4941919;29;20027;-65
2022/11/30 07:01:01;;;;;;;6.07;2.40;;;;;;;;;;4942744;29;20026;-65
2022/11/30 07:03:27;;;;;;;8.60;2.95;;;;;;;;;;4941735;29;20040;-65
2022/11/30 07:05:53;;;;;;;7.35;2.83;;;;;;;;;;4942353;29;20127;-63
2022/11/30 07:08:19;;;;;;;6.07;2.17;;;;;;;;;;4943183;29;20028;-63
2022/11/30 07:10:46;;;;;;;4.88;2.13;;;;;;;;;;4943262;29;20095;-64
2022/11/30 07:13:13;;;;;;;7.00;2.50;;;;;;;;;;4941660;29;20036;-65
2022/11/30 07:15:40;;;;;;;7.20;1.90;;;;;;;;;;4941405;29;20704;-64
2022/11/30 07:18:06;;;;;;;5.45;1.92;;;;;;;;;;4942423;29;20035;-64
2022/11/30 07:20:32;;;;;;;5.82;2.00;;;;;;;;;;4942033;29;20396;-64
2022/11/30 07:26:05;;;;;;;3.80;1.92;;;;;;;;;;4948210;29;20050;-63
2022/11/30 07:28:29;;;;;;;4.90;1.70;;;;;;;;;;4938124;29;20043;-61
2022/11/30 07:30:55;;;;;;;6.07;2.08;;;;;;;;;;4936060;29;20035;-62
2022/11/30 07:33:21;;;;;;;3.40;1.52;;;;;;;;;;4952661;29;20090;-60
2022/11/30 07:35:47;;;;;;;4.65;1.98;;;;;;;;;;4953008;28;20024;-63
2022/11/30 07:38:13;;;;;;;4.47;1.98;;;;;;;;;;4952497;28;20101;-62
2022/11/30 07:40:39;;;;;;;3.72;1.90;;;;;;;;;;4952865;29;20475;-63
2022/11/30 07:43:05;;;;;;;4.95;1.98;;;;;;;;;;4952396;29;20035;-61
2022/11/30 07:45:31;;;;;;;5.05;2.05;;;;;;;;;;4952908;29;20027;-60
2022/11/30 07:48:00;;;;;;;3.75;1.80;;;;;;;;;;4944728;29;20483;-61
2022/11/30 07:50:26;;;;;;;5.38;2.38;;;;;;;;;;4939929;29;20433;-62
2022/11/30 07:52:52;;;;;;;4.45;2.53;;;;;;;;;;4941799;29;20512;-62
2022/11/30 07:55:22;;;;;;;5.32;2.08;;;;;;;;;;4944699;28;20099;-66
2022/11/30 07:57:48;;;;;;;5.40;2.42;;;;;;;;;;4929628;29;20035;-67
2022/11/30 08:00:14;;;;;;;5.55;2.80;;;;;;;;;;4937502;29;20032;-61
2022/11/30 08:02:40;;;;;;;5.03;2.55;;;;;;;;;;4941987;29;20090;-61
2022/11/30 08:05:10;;;;;;;6.28;2.53;;;;;;;;;;4941501;29;20148;-63
2022/11/30 08:07:36;;;;;;;6.40;3.00;;;;;;;;;;4943069;29;20043;-62
2022/11/30 08:10:02;;;;;;;7.15;3.50;;;;;;;;;;4950923;29;20038;-61
2022/11/30 08:12:28;;;;;;;6.30;2.75;;;;;;;;;;4946473;29;20031;-62
2022/11/30 08:14:54;;;;;;;6.88;2.80;;;;;;;;;;4951867;29;20035;-62
2022/11/30 08:17:20;;;;;;;7.00;2.90;;;;;;;;;;4940432;29;20114;-62
2022/11/30 08:19:46;;;;;;;6.60;3.10;;;;;;;;;;4938627;29;20789;-61
2022/11/30 08:22:12;;;;;;;7.95;3.42;;;;;;;;;;4942596;29;20122;-62
2022/11/30 08:24:38;;;;;;;6.28;2.88;;;;;;;;;;4943926;29;20024;-61
2022/11/30 08:27:04;;;;;;;8.25;2.92;;;;;;;;;;4948191;29;20035;-61
2022/11/30 08:29:30;;;;;;;10.32;3.78;;;;;;;;;;4942043;29;20028;-62
2022/11/30 08:31:56;;;;;;;9.07;3.25;;;;;;;;;;4938348;29;20098;-62
2022/11/30 08:34:22;;;;;;;7.25;3.47;;;;;;;;;;4951496;29;20143;-61
2022/11/30 08:36:48;;;;;;;7.43;2.92;;;;;;;;;;4939594;29;20051;-64
2022/11/30 08:39:14;;;;;;;6.32;2.53;;;;;;;;;;4949391;29;20024;-66
2022/11/30 08:41:40;;;;;;;6.05;2.58;;;;;;;;;;4946132;29;20421;-64
2022/11/30 08:44:06;;;;;;;4.13;2.05;;;;;;;;;;4945241;29;20032;-62
2022/11/30 08:46:32;;;;;;;5.53;2.78;;;;;;;;;;4942607;29;20498;-62
2022/11/30 08:48:58;;;;;;;6.30;2.78;;;;;;;;;;4953750;29;20031;-62
2022/11/30 08:51:24;;;;;;;8.02;3.80;;;;;;;;;;4943240;29;20027;-61
2022/11/30 08:53:50;;;;;;;6.90;3.50;;;;;;;;;;4954417;29;20035;-67
2022/11/30 08:56:18;;;;;;;5.85;2.22;;;;;;;;;;4952116;29;20086;-61
2022/11/30 08:58:45;;;;;;;5.90;2.83;;;;;;;;;;4940214;29;20032;-62
2022/11/30 09:01:12;;;;;;;4.30;1.83;;;;;;;;;;4937789;29;21284;-63
2022/11/30 09:03:39;;;;;;;5.72;2.20;;;;;;;;;;4942447;29;20117;-61
2022/11/30 09:06:06;;;;;;;5.50;2.08;;;;;;;;;;4942753;29;20462;-61
2022/11/30 09:08:33;;;;;;;6.47;2.53;;;;;;;;;;4951698;29;20039;-60
2022/11/30 09:10:59;;;;;;;5.40;2.05;;;;;;;;;;4939510;29;20040;-62
2022/11/30 09:13:25;;;;;;;5.63;2.28;;;;;;;;;;4942359;29;20083;-63
2022/11/30 09:15:55;;;;;;;5.32;2.10;;;;;;;;;;4941000;29;20046;-61
2022/11/30 09:18:21;;;;;;;6.85;2.40;;;;;;;;;;4941897;28;20035;-65
2022/11/30 09:20:47;;;;;;;5.32;2.33;;;;;;;;;;4944749;29;20040;-61
2022/11/30 09:23:13;;;;;;;9.23;2.67;;;;;;;;;;4942970;29;20459;-62
2022/11/30 09:25:39;;;;;;;5.88;2.50;;;;;;;;;;4949537;29;20028;-65
2022/11/30 09:28:05;;;;;;;5.57;2.55;;;;;;;;;;4939786;29;20403;-64
2022/11/30 09:30:31;;;;;;;3.42;1.73;;;;;;;;;;4935690;29;20037;-65
2022/11/30 09:32:59;;;;;;;5.18;2.25;;;;;;;;;;4936518;29;20099;-65
2022/11/30 09:35:26;;;;;;;6.18;2.70;;;;;;;;;;4922045;29;20055;-60
2022/11/30 09:37:52;;;;;;;4.97;2.28;;;;;;;;;;4935170;29;20031;-61
2022/11/30 09:40:21;;;;;;;5.47;2.00;;;;;;;;;;4934935;29;20024;-60
2022/11/30 09:42:47;;;;;;;4.75;2.00;;;;;;;;;;4934771;29;20027;-64
2022/11/30 09:45:16;;;;;;;8.65;2.92;;;;;;;;;;4935023;29;20106;-67
2022/11/30 09:47:54;;;;;;;7.55;3.72;;;;;;;;;;4951914;29;20055;-63
2022/11/30 09:50:22;;;;;;;7.05;3.42;;;;;;;;;;4958271;29;20035;-68
2022/11/30 09:52:52;;;;;;;5.13;2.60;;;;;;;;;;4919082;29;20040;-64
2022/11/30 09:55:26;;;;;;;5.38;2.83;;;;;;;;;;4934875;29;20151;-67
2022/11/30 09:57:53;;;;;;;6.30;2.58;;;;;;;;;;4917472;29;20115;-61
2022/11/30 10:00:21;;;;;;;5.65;2.47;;;;;;;;;;4934752;29;20039;-65
2022/11/30 10:02:48;;;;;;;5.57;2.33;;;;;;;;;;4934414;29;20032;-61
2022/11/30 10:05:15;;;;;;;4.20;2.15;;;;;;;;;;4934793;29;20118;-66
2022/11/30 10:07:41;;;;;;;5.03;2.20;;;;;;;;;;4934322;29;20024;-60
2022/11/30 10:10:19;;;;;;;5.82;2.55;;;;;;;;;;4934783;29;20031;-63
2022/11/30 10:12:51;;;;;;;4.90;2.38;;;;;;;;;;4934437;29;20046;-64
2022/11/30 10:15:17;;;;;;;5.82;2.70;;;;;;;;;;4934614;29;20111;-63
2022/11/30 10:17:43;;;;;;;5.00;2.25;;;;;;;;;;4934603;29;20155;-65
2022/11/30 10:20:27;;;;;;;5.18;2.20;;;;;;;;;;4934378;29;20130;-62
2022/11/30 10:22:54;;;;;;;6.28;2.28;;;;;;;;;;4934025;29;20050;-67
2022/11/30 10:25:23;;;;;;;6.05;2.65;;;;;;;;;;4934109;29;20094;-61
2022/11/30 10:27:51;;;;;;;4.88;2.20;;;;;;;;;;4934252;29;20064;-63
2022/11/30 10:30:21;;;;;;;4.97;2.28;;;;;;;;;;4933608;29;20028;-64
2022/11/30 10:32:50;;;;;;;6.82;3.33;;;;;;;;;;4934241;29;20044;-61
2022/11/30 10:35:28;;;;;;;8.40;4.72;;;;;;;;;;4934037;29;20031;-62
2022/11/30 10:37:56;;;;;;;7.45;3.67;;;;;;;;;;4934221;29;20023;-62
2022/11/30 10:40:25;;;;;;;5.80;3.00;;;;;;;;;;4934472;29;20020;-64
2022/11/30 10:42:55;;;;;;;5.60;2.33;;;;;;;;;;4934320;29;20027;-66
2022/11/30 10:45:23;;;;;;;4.05;1.83;;;;;;;;;;4933730;29;20036;-62
2022/11/30 10:47:49;;;;;;;4.80;2.08;;;;;;;;;;4934158;29;20028;-65
2022/11/30 10:50:16;;;;;;;5.80;2.75;;;;;;;;;;4934106;29;20035;-63
2022/11/30 10:52:46;;;;;;;5.70;2.60;;;;;;;;;;4933705;29;20039;-62
2022/11/30 10:55:17;;;;;;;4.75;2.28;;;;;;;;;;4933751;29;20031;-66
2022/11/30 10:57:43;;;;;;;4.28;1.92;;;;;;;;;;4933833;29;20437;-66
2022/11/30 11:00:15;;;;;;;5.53;2.22;;;;;;;;;;4935977;29;20030;-65
2022/11/30 11:02:43;;;;;;;3.83;1.80;;;;;;;;;;4924234;29;20024;-66
2022/11/30 11:05:24;;;;;;;3.97;1.60;;;;;;;;;;4934006;29;20027;-66
2022/11/30 11:08:03;;;;;;;3.85;1.95;;;;;;;;;;4933583;29;20099;-62
2022/11/30 11:10:32;;;;;;;5.57;2.83;;;;;;;;;;4933892;29;20383;-67
2022/11/30 11:12:58;;;;;;;5.22;2.78;;;;;;;;;;4933357;29;20486;-67
2022/11/30 11:15:24;;;;;;;6.25;2.95;;;;;;;;;;4933764;29;20038;-64
2022/11/30 11:17:51;;;;;;;5.35;2.42;;;;;;;;;;4933514;29;20039;-64
2022/11/30 11:20:32;;;;;;;4.63;1.85;;;;;;;;;;4949449;29;20074;-63
2022/11/30 11:22:59;;;;;;;5.07;1.52;;;;;;;;;;4952910;29;20087;-66
2022/11/30 11:25:31;;;;;;;4.47;2.60;;;;;;;;;;4952838;29;20031;-67
2022/11/30 11:28:02;;;;;;;5.60;2.75;;;;;;;;;;4952840;29;20035;-61
2022/11/30 11:30:30;;;;;;;5.07;2.65;;;;;;;;;;4952661;29;20805;-65
2022/11/30 11:33:11;;;;;;;6.05;3.00;;;;;;;;;;4952558;29;20423;-65
2022/11/30 11:35:37;;;;;;;5.97;3.30;;;;;;;;;;4952466;29;20138;-64
2022/11/30 11:38:04;;;;;;;10.55;3.80;;;;;;;;;;4952587;29;20026;-65
2022/11/30 11:40:30;;;;;;;8.27;3.90;;;;;;;;;;4952759;28;20104;-61
2022/11/30 11:42:57;;;;;;;8.13;4.32;;;;;;;;;;4956435;29;20028;-66
2022/11/30 11:45:28;;;;;;;7.75;4.13;;;;;;;;;;4956393;29;20035;-64
2022/11/30 11:48:20;;;;;;;6.43;3.25;;;;;;;;;;4956290;29;20062;-64
2022/11/30 11:50:56;;;;;;;11.30;4.30;;;;;;;;;;4953475;29;20059;-63
2022/11/30 11:53:23;;;;;;;8.98;4.22;;;;;;;;;;4955698;29;20027;-64
2022/11/30 11:56:01;;;;;;;11.10;4.50;;;;;;;;;;4956367;29;20038;-67
2022/11/30 11:58:32;;;;;;;10.27;4.28;;;;;;;;;;4955726;29;20562;-66
2022/11/30 12:01:01;;;;;;;8.52;4.43;;;;;;;;;;4955787;29;20498;-64
2022/11/30 12:03:33;;;;;;;8.70;4.32;;;;;;;;;;4955772;29;20487;-64
2022/11/30 12:06:19;;;;;;;10.05;5.25;;;;;;;;;;4956113;29;20387;-61
2022/11/30 12:08:46;;;;;;;7.03;4.47;;;;;;;;;;4955760;29;20098;-61
2022/11/30 12:11:26;;;;;;;8.60;4.70;;;;;;;;;;4956214;29;20091;-62
2022/11/30 12:13:52;;;;;;;11.68;5.45;;;;;;;;;;4955666;29;20067;-62
2022/11/30 12:16:21;;;;;;;6.88;3.83;;;;;;;;;;4955974;29;20479;-59
2022/11/30 12:18:47;;;;;;;11.23;4.85;;;;;;;;;;4955458;29;20047;-63
2022/11/30 12:21:14;;;;;;;8.68;4.50;;;;;;;;;;4947644;29;20031;-61
2022/11/30 12:23:40;;;;;;;8.35;4.13;;;;;;;;;;4936525;29;20027;-61
2022/11/30 12:26:06;;;;;;;7.93;3.42;;;;;;;;;;4936195;29;20443;-62
2022/11/30 12:28:38;;;;;;;10.77;4.70;;;;;;;;;;4944409;29;20059;-62
2022/11/30 12:31:13;;;;;;;7.53;4.20;;;;;;;;;;4944292;29;20019;-66
2022/11/30 12:34:01;;;;;;;8.73;4.47;;;;;;;;;;4945243;29;20038;-62
2022/11/30 12:36:29;;;;;;;10.63;4.35;;;;;;;;;;4943575;29;20039;-62
2022/11/30 12:39:04;;;;;;;8.98;5.05;;;;;;;;;;4940248;29;20040;-65
2022/11/30 12:41:48;;;;;;;8.98;5.20;;;;;;;;;;4945378;28;20515;-61
2022/11/30 12:44:14;;;;;;;9.52;3.95;;;;;;;;;;4940374;29;20077;-62
2022/11/30 12:46:41;;;;;;;8.85;4.18;;;;;;;;;;4944971;29;20030;-62
2022/11/30 12:49:13;;;;;;;6.00;3.70;;;;;;;;;;4945872;29;20027;-64
2022/11/30 12:51:47;;;;;;;7.22;4.15;;;;;;;;;;4946190;29;20115;-62
2022/11/30 12:54:31;;;;;;;6.13;3.70;;;;;;;;;;4944884;29;20073;-62
2022/11/30 12:57:09;;;;;;;7.53;4.18;;;;;;;;;;4940169;29;20395;-64
2022/11/30 12:59:35;;;;;;;6.35;3.63;;;;;;;;;;4944720;29;20022;-67
2022/11/30 13:07:45;;;;;;;7.40;3.80;;;;;;;;;;5631068;23;20036;31
2022/11/30 13:10:29;;;;;;;9.15;4.55;;;;;;;;;;4928129;29;20083;-65
2022/11/30 13:12:56;;;;;;;10.25;5.05;;;;;;;;;;4935349;29;20042;-64
2022/11/30 13:15:27;;;;;;;9.18;4.38;;;;;;;;;;4935415;29;20031;-62
2022/11/30 13:17:53;;;;;;;9.35;5.50;;;;;;;;;;4935759;29;20040;-63
2022/11/30 13:20:25;;;;;;;9.10;4.53;;;;;;;;;;4935598;29;20115;-64
2022/11/30 13:23:00;;;;;;;9.13;4.90;;;;;;;;;;4934860;29;20114;-63
2022/11/30 13:25:26;;;;;;;8.38;4.60;;;;;;;;;;4935225;29;20035;-66
2022/11/30 13:27:56;;;;;;;7.57;3.30;;;;;;;;;;4935047;29;20083;-62
2022/11/30 13:30:27;;;;;;;8.70;4.22;;;;;;;;;;4935360;29;20074;-62
2022/11/30 13:32:53;;;;;;;7.80;4.13;;;;;;;;;;4934949;29;20050;-62
2022/11/30 13:35:28;;;;;;;7.63;4.20;;;;;;;;;;4935389;29;20472;-62
2022/11/30 13:38:01;;;;;;;6.63;3.38;;;;;;;;;;4935186;29;20035;-62
2022/11/30 13:40:27;;;;;;;6.72;3.45;;;;;;;;;;4935145;29;20035;-62
2022/11/30 13:42:54;;;;;;;6.45;3.13;;;;;;;;;;4934952;29;20078;-66
2022/11/30 13:45:26;;;;;;;4.85;3.13;;;;;;;;;;4933445;29;20115;-62
2022/11/30 13:47:54;;;;;;;6.30;3.10;;;;;;;;;;4935054;29;20437;-62
2022/11/30 13:50:20;;;;;;;5.80;3.30;;;;;;;;;;4934771;29;20026;-66
2022/11/30 13:52:58;;;;;;;8.55;4.20;;;;;;;;;;4934479;29;20118;-67
2022/11/30 13:55:50;;;;;;;6.30;3.20;;;;;;;;;;4934736;29;20035;-64
2022/11/30 13:58:18;;;;;;;5.57;3.30;;;;;;;;;;4933690;29;20040;-64
2022/11/30 14:01:00;;;;;;;6.43;3.67;;;;;;;;;;4934503;29;20483;-63
2022/11/30 14:03:27;;;;;;;6.78;3.13;;;;;;;;;;4934229;29;20385;-64
2022/11/30 14:05:54;;;;;;;6.70;3.63;;;;;;;;;;4933161;29;20138;-63
2022/11/30 14:08:20;;;;;;;6.10;3.47;;;;;;;;;;4941735;29;20047;-66
2022/11/30 14:10:53;;;;;;;4.97;3.13;;;;;;;;;;4953197;29;20047;-61
2022/11/30 14:13:21;;;;;;;10.07;4.15;;;;;;;;;;4953449;28;20039;-63
2022/11/30 14:15:47;;;;;;;6.50;3.63;;;;;;;;;;4953004;28;20070;-61
2022/11/30 14:18:21;;;;;;;8.05;3.38;;;;;;;;;;4953338;29;20035;-65
2022/11/30 14:20:50;;;;;;;7.45;4.10;;;;;;;;;;4952782;29;20652;-63
2022/11/30 14:23:19;;;;;;;9.13;4.50;;;;;;;;;;4953071;29;20027;-61
2022/11/30 14:25:50;;;;;;;8.13;4.07;;;;;;;;;;4953244;28;20074;-61
2022/11/30 14:28:21;;;;;;;7.05;3.70;;;;;;;;;;4952784;29;20384;-65
2022/11/30 14:30:48;;;;;;;8.02;3.80;;;;;;;;;;4949995;29;20057;-66
2022/11/30 14:33:25;;;;;;;10.48;4.10;;;;;;;;;;4938324;29;20048;-62
2022/11/30 14:35:54;;;;;;;9.40;4.47;;;;;;;;;;4944447;29;20027;-62
2022/11/30 14:38:30;;;;;;;7.65;3.90;;;;;;;;;;4940400;29;20054;-68
2022/11/30 14:40:57;;;;;;;7.15;3.85;;;;;;;;;;4945197;28;20043;-61
2022/11/30 14:43:23;;;;;;;11.82;4.85;;;;;;;;;;4935003;29;20106;-63
2022/11/30 14:45:56;;;;;;;12.15;4.80;;;;;;;;;;4941272;29;20496;-61
2022/11/30 14:48:22;;;;;;;11.38;5.10;;;;;;;;;;4941927;29;20537;-64
2022/11/30 14:50:56;;;;;;;9.23;5.22;;;;;;;;;;4936188;29;20032;-61
2022/11/30 14:53:24;;;;;;;10.27;5.20;;;;;;;;;;4933381;29;20404;-67
2022/11/30 14:56:04;;;;;;;10.60;5.28;;;;;;;;;;4933749;29;20042;-61
2022/11/30 14:58:39;;;;;;;9.65;5.07;;;;;;;;;;4935585;29;20530;-62